Decatur, IL (62521)

11:09 AM CST on January 27, 2015 (GMT -0600)
Sandhill Dr. | Change Station
CLOSE
Current Station
Personal Weather Station
Location: Decatur, IL
Elevation: 676 ft
Nearby Weather Stations

Elev 676 ft 39.82 °N, 88.92 °W | Updated 13 seconds ago

Overcast
Overcast
32.5 °F
Feels Like 32 °F
N
1.1
Wind Variable Wind from NE
Gusts 3.1 mph

Today
High -- | Low -- °F
--% Chance of Precip.
Yesterday
High -- | Low -- °F
Precip. -- in
7:08 AM 5:09 PM
First Quarter, 56% visible
Pressure 30.17 in
Visibility 7.0 miles
Clouds Scattered Clouds 1000 ft
Overcast 1600 ft
Windchill 32 °F
Dew Point 32 °F
Humidity 96%
Rainfall 0.00 in
Snow Depth Not available.
UV 1 out of 12
Pollen .10 out of 12
Air Quality Not available.
Flu Activity Not available.
METAR KDEC 271654Z 03009KT 7SM SCT010 OVC016 01/M01 A3015 RMK AO2 SLP215 T00061011

More Conditions Fewer Conditions

Pressure 30.17 in
Visibility 7.0 miles
Clouds Scattered Clouds 1000 ft
Overcast 1600 ft
Windchill 32 °F
Dew Point 32 °F
Humidity 96%
Rainfall 0.00 in
Snow Depth Not available.
UV 1 out of 12
Pollen .10 out of 12
Air Quality Not available.
Flu Activity Not available.
METAR KDEC 271654Z 03009KT 7SM SCT010 OVC016 01/M01 A3015 RMK AO2 SLP215 T00061011

More Conditions Fewer Conditions

10-Day Weather Forecast

Almanac

Astronomy

Jan. 27, 2015 Rise Set
Actual Time
Civil Twilight
Nautical Twilight
Astronomical Twilight
Moon
Length of Visible Light
Length of Day
Tomorrow will be .
, % of the Moon is Illuminated

Today's Extremes

State Highs State Lows

Community

WunderPhotos

Upload Photos

1,790,729 photos uploaded!

WunderBlogs® & News

Nearby

Air Quality

  Air Quality AQ Index Pollutant
Not available.

Snow Depth

Station Depth Elevation

Earthquake Activity

City Distance Mag. Time & Date
Minimum magnitude displayed is 2.5.

Coastal Water Temperatures

Place Temperature

Nearby Weather Stations